createdAt,value
2019-06-15T00:00:02.142Z,79.07
2019-06-15T00:01:02.102Z,78.88
2019-06-15T00:02:02.081Z,78.69
2019-06-15T00:03:02.019Z,78.59
2019-06-15T00:04:01.982Z,78.69
2019-06-15T00:05:01.938Z,79.07
2019-06-15T00:06:01.898Z,78.02
2019-06-15T00:07:01.898Z,78.40
2019-06-15T00:08:04.605Z,78.02
2019-06-15T00:09:01.783Z,78.34
2019-06-15T00:10:01.753Z,78.78
2019-06-15T00:11:01.699Z,78.59
2019-06-15T00:12:01.684Z,78.88
2019-06-15T00:13:01.614Z,77.44
2019-06-15T00:14:01.575Z,77.48
2019-06-15T00:15:01.540Z,78.06
2019-06-15T00:16:01.503Z,78.34
2019-06-15T00:17:01.474Z,78.63
2019-06-15T00:18:01.413Z,77.67
2019-06-15T00:19:01.375Z,78.30
2019-06-15T00:20:01.335Z,77.76
2019-06-15T00:21:01.318Z,77.76
2019-06-15T00:22:01.275Z,77.96
2019-06-15T00:23:01.216Z,78.30
2019-06-15T00:24:01.173Z,78.34
2019-06-15T00:25:01.133Z,78.53
2019-06-15T00:26:01.098Z,78.69
2019-06-15T00:27:01.072Z,78.59
2019-06-15T00:28:01.012Z,78.88
2019-06-15T00:29:00.969Z,78.50
2019-06-15T00:30:00.930Z,78.40
2019-06-15T00:31:00.889Z,78.40
2019-06-15T00:32:00.871Z,78.21
2019-06-15T00:33:00.817Z,76.00
2019-06-15T00:34:00.769Z,75.04
2019-06-15T00:35:00.735Z,73.60
2019-06-15T00:36:00.687Z,73.41
2019-06-15T00:37:00.677Z,72.73
2019-06-15T00:38:00.605Z,72.54
2019-06-15T00:39:00.597Z,70.81
2019-06-15T00:40:00.559Z,71.10
2019-06-15T00:41:00.483Z,71.39
2019-06-15T00:42:00.477Z,70.14
2019-06-15T00:43:00.403Z,70.33
2019-06-15T00:44:00.361Z,69.95
2019-06-15T00:45:00.321Z,70.62
2019-06-15T00:46:00.309Z,71.19
2019-06-15T00:47:00.242Z,70.56
2019-06-15T00:48:00.205Z,70.23
2019-06-15T00:49:00.157Z,71.19
2019-06-15T00:50:00.130Z,70.81
2019-06-15T00:51:00.085Z,70.72
2019-06-15T00:52:00.057Z,71.00
2019-06-15T00:53:00.015Z,69.95
2019-06-15T00:53:59.955Z,71.29
2019-06-15T00:54:59.917Z,71.19
2019-06-15T00:55:59.875Z,70.62
2019-06-15T00:56:59.832Z,70.81
2019-06-15T00:57:59.815Z,71.48
2019-06-15T00:58:59.753Z,70.81
2019-06-15T00:59:59.715Z,70.90
2019-06-15T01:00:59.669Z,70.72
2019-06-15T01:01:59.632Z,70.62
2019-06-15T01:02:59.615Z,70.33
2019-06-15T01:03:59.550Z,70.33
2019-06-15T01:04:59.554Z,69.98
2019-06-15T01:05:59.466Z,69.98
2019-06-15T01:06:59.428Z,70.37
2019-06-15T01:07:59.411Z,69.98
2019-06-15T01:08:59.345Z,70.17
2019-06-15T01:09:59.304Z,70.56
2019-06-15T01:10:59.264Z,69.50
2019-06-15T01:11:59.226Z,69.50
2019-06-15T01:12:59.201Z,69.69
2019-06-15T01:13:59.141Z,69.50
2019-06-15T01:14:59.100Z,69.79
2019-06-15T01:15:59.066Z,68.86
2019-06-15T01:16:59.023Z,68.96
2019-06-15T01:17:59.003Z,68.76
2019-06-15T01:18:58.937Z,68.19
2019-06-15T01:19:58.902Z,67.42
2019-06-15T01:20:58.862Z,66.84
2019-06-15T01:21:58.818Z,66.07
2019-06-15T01:22:58.796Z,66.10
2019-06-15T01:23:58.737Z,65.43
2019-06-15T01:25:05.736Z,65.53
2019-06-15T01:25:58.670Z,65.43
2019-06-15T01:26:58.611Z,65.53
2019-06-15T01:27:58.593Z,65.24
2019-06-15T01:28:58.531Z,65.33
2019-06-15T01:29:58.492Z,65.05
2019-06-15T01:30:58.451Z,65.43
2019-06-15T01:31:58.409Z,66.10
2019-06-15T01:32:58.394Z,66.20
2019-06-15T01:33:58.329Z,66.49
2019-06-15T01:34:58.290Z,66.58
2019-06-15T01:35:58.250Z,66.78
2019-06-15T01:36:58.205Z,67.55
2019-06-15T01:37:58.189Z,67.35
2019-06-15T01:38:58.130Z,67.55
2019-06-15T01:39:58.084Z,67.93
2019-06-15T01:40:58.043Z,68.22
2019-06-15T01:41:58.004Z,68.76
2019-06-15T01:42:57.992Z,68.90
2019-06-15T01:43:57.979Z,68.38
2019-06-15T01:44:57.880Z,68.76
2019-06-15T01:45:57.840Z,69.15
2019-06-15T01:46:57.805Z,69.44
2019-06-15T01:47:57.769Z,69.82
2019-06-15T01:48:57.739Z,69.53
2019-06-15T01:49:57.697Z,70.21
2019-06-15T01:50:57.636Z,70.30
2019-06-15T01:51:57.596Z,70.30
2019-06-15T01:52:57.554Z,70.01
2019-06-15T01:53:57.534Z,69.92
2019-06-15T01:54:57.474Z,70.11
2019-06-15T01:55:57.434Z,70.21
2019-06-15T01:56:57.390Z,70.56
2019-06-15T01:57:57.350Z,70.75
2019-06-15T01:58:57.329Z,70.65
2019-06-15T01:59:57.268Z,70.46
2019-06-15T02:00:57.230Z,70.94
2019-06-15T02:01:57.187Z,70.75
2019-06-15T02:02:57.146Z,71.23
2019-06-15T02:03:57.129Z,70.37
2019-06-15T02:04:57.063Z,70.21
2019-06-15T02:05:57.022Z,69.79
2019-06-15T02:06:56.987Z,70.94
2019-06-15T02:07:56.943Z,70.78
2019-06-15T02:08:56.927Z,70.88
2019-06-15T02:09:56.860Z,70.84
2019-06-15T02:10:56.820Z,71.52
2019-06-15T02:11:56.780Z,71.14
2019-06-15T02:12:56.737Z,71.04
2019-06-15T02:13:56.720Z,71.33
2019-06-15T02:14:56.656Z,71.23
2019-06-15T02:15:56.615Z,71.14
2019-06-15T02:16:56.577Z,71.71
2019-06-15T02:17:56.533Z,71.33
2019-06-15T02:18:56.513Z,72.19
2019-06-15T02:19:56.451Z,71.91
2019-06-15T02:20:56.422Z,72.00
2019-06-15T02:21:56.371Z,71.91
2019-06-15T02:22:56.329Z,72.00
2019-06-15T02:23:56.311Z,71.42
2019-06-15T02:24:56.249Z,71.61
2019-06-15T02:25:56.209Z,72.09
2019-06-15T02:26:56.168Z,72.09
2019-06-15T02:27:56.143Z,71.91
2019-06-15T02:28:56.106Z,72.32
2019-06-15T02:29:56.045Z,71.71
2019-06-15T02:30:56.008Z,71.81
2019-06-15T02:31:55.974Z,71.71
2019-06-15T02:32:55.926Z,71.91
2019-06-15T02:33:55.907Z,71.71
2019-06-15T02:34:55.844Z,72.00
2019-06-15T02:35:55.803Z,71.23
2019-06-15T02:36:55.765Z,71.42
2019-06-15T02:37:55.722Z,71.81
2019-06-15T02:38:55.714Z,71.42
2019-06-15T02:39:55.658Z,71.71
2019-06-15T02:40:55.600Z,71.52
2019-06-15T02:41:55.558Z,71.71
2019-06-15T02:42:55.518Z,71.42
2019-06-15T02:43:55.498Z,71.04
2019-06-15T02:44:55.436Z,71.42
2019-06-15T02:45:55.402Z,72.19
2019-06-15T02:46:55.361Z,71.71
2019-06-15T02:47:55.319Z,70.84
2019-06-15T02:48:55.299Z,70.94
2019-06-15T02:49:55.254Z,71.23
2019-06-15T02:50:55.194Z,71.61
2019-06-15T02:51:55.185Z,71.33
2019-06-15T02:52:55.111Z,72.00
2019-06-15T02:53:55.093Z,71.91
2019-06-15T02:54:55.030Z,72.00
2019-06-15T02:55:54.990Z,72.48
2019-06-15T02:56:54.952Z,72.58
2019-06-15T02:57:54.909Z,72.58
2019-06-15T02:58:54.890Z,72.73
2019-06-15T02:59:54.833Z,72.77
2019-06-15T03:00:54.789Z,73.31
2019-06-15T03:01:54.744Z,73.31
2019-06-15T03:02:54.705Z,73.79
2019-06-15T03:03:54.699Z,74.37
2019-06-15T03:04:54.624Z,74.08
2019-06-15T03:05:54.584Z,73.98
2019-06-15T03:06:54.547Z,74.65
2019-06-15T03:07:54.502Z,74.37
2019-06-15T03:08:54.459Z,74.08
2019-06-15T03:09:54.438Z,73.98
2019-06-15T03:10:54.379Z,74.94
2019-06-15T03:11:54.337Z,75.00
2019-06-15T03:12:54.299Z,74.90
2019-06-15T03:13:54.255Z,75.29
2019-06-15T03:14:54.215Z,75.00
2019-06-15T03:15:54.197Z,75.57
2019-06-15T03:16:54.133Z,75.38
2019-06-15T03:17:54.093Z,75.38
2019-06-15T03:18:54.049Z,75.67
2019-06-15T03:19:54.013Z,75.57
2019-06-15T03:20:53.968Z,75.77
2019-06-15T03:21:53.954Z,75.87
2019-06-15T03:22:53.886Z,75.87
2019-06-15T03:23:53.850Z,76.06
2019-06-15T03:24:53.807Z,76.06
2019-06-15T03:26:05.243Z,75.96
2019-06-15T03:26:53.729Z,75.96
2019-06-15T03:27:53.713Z,76.64
2019-06-15T03:28:53.639Z,76.69
2019-06-15T03:29:53.598Z,77.08
2019-06-15T03:30:53.559Z,76.88
2019-06-15T03:31:53.518Z,77.46
2019-06-15T03:32:53.478Z,77.46
2019-06-15T03:33:53.471Z,77.65
2019-06-15T03:34:53.404Z,77.94
2019-06-15T03:35:53.354Z,77.84
2019-06-15T03:36:53.311Z,78.23
2019-06-15T03:37:53.270Z,78.13
2019-06-15T03:38:53.235Z,78.32
2019-06-15T03:39:53.225Z,78.32
2019-06-15T03:40:53.147Z,79.09
2019-06-15T03:41:53.106Z,78.90
2019-06-15T03:42:53.065Z,78.90
2019-06-15T03:43:53.023Z,79.09
2019-06-15T03:44:53.007Z,79.38
2019-06-15T03:45:52.969Z,78.99
2019-06-15T03:46:52.900Z,78.99
2019-06-15T03:47:52.863Z,79.34
2019-06-15T03:48:52.817Z,78.96
2019-06-15T03:49:52.804Z,79.14
2019-06-15T03:50:52.738Z,79.14
2019-06-15T03:51:52.696Z,79.14
2019-06-15T03:52:52.654Z,79.44
2019-06-15T03:53:52.612Z,80.01
2019-06-15T03:54:52.570Z,80.11
2019-06-15T03:55:52.555Z,80.40
2019-06-15T03:56:52.494Z,80.20
2019-06-15T03:57:52.446Z,79.24
2019-06-15T03:58:52.406Z,79.53
2019-06-15T03:59:52.364Z,80.40
2019-06-15T04:00:52.334Z,79.82
2019-06-15T04:01:52.305Z,80.74
2019-06-15T04:02:52.243Z,81.07
2019-06-15T04:03:52.199Z,81.31
2019-06-15T04:04:52.469Z,81.54
2019-06-15T04:05:52.114Z,80.74
2019-06-15T04:06:52.075Z,81.26
2019-06-15T04:07:52.057Z,81.07
2019-06-15T04:08:51.990Z,81.26
2019-06-15T04:09:51.956Z,80.87
2019-06-15T04:10:51.909Z,80.68
2019-06-15T04:11:51.870Z,80.97
2019-06-15T04:12:51.827Z,80.97
2019-06-15T04:13:51.809Z,80.40
2019-06-15T04:14:51.742Z,80.20
2019-06-15T04:15:51.701Z,79.34
2019-06-15T04:16:51.660Z,79.57
2019-06-15T04:17:51.623Z,79.47
2019-06-15T04:18:51.585Z,79.38
2019-06-15T04:19:51.557Z,78.90
2019-06-15T04:20:51.495Z,78.61
2019-06-15T04:21:51.452Z,76.59
2019-06-15T04:22:51.459Z,76.21
2019-06-15T04:23:51.370Z,75.54
2019-06-15T04:24:51.329Z,76.06
2019-06-15T04:25:51.323Z,75.96
2019-06-15T04:26:51.251Z,75.29
2019-06-15T04:27:51.207Z,73.85
2019-06-15T04:28:51.165Z,72.99
2019-06-15T04:29:51.127Z,72.64
2019-06-15T04:30:51.082Z,71.93
2019-06-15T04:31:51.105Z,71.39
2019-06-15T04:32:51.000Z,71.00
2019-06-15T04:33:50.984Z,70.04
2019-06-15T04:34:50.921Z,70.43
2019-06-15T04:35:50.877Z,69.46
2019-06-15T04:36:50.837Z,69.66
2019-06-15T04:39:22.307Z,68.41
2019-06-15T04:40:22.255Z,68.51
2019-06-15T04:41:22.223Z,67.93
2019-06-15T04:42:22.174Z,69.08
2019-06-15T04:43:22.162Z,68.02
2019-06-15T04:44:22.096Z,68.21
2019-06-15T04:45:22.053Z,67.54
2019-06-15T04:46:22.008Z,67.35
2019-06-15T04:47:21.971Z,67.77
2019-06-15T04:48:21.929Z,67.77
2019-06-15T04:49:21.920Z,67.77
2019-06-15T04:50:21.885Z,68.15
2019-06-15T04:51:21.807Z,67.54
2019-06-15T04:52:21.766Z,67.83
2019-06-15T04:53:21.721Z,67.48
2019-06-15T04:54:21.685Z,68.35
2019-06-15T04:55:21.643Z,67.93
2019-06-15T04:56:21.645Z,67.96
2019-06-15T04:57:21.582Z,67.38
2019-06-15T04:58:21.516Z,67.38
2019-06-15T04:59:21.481Z,66.71
2019-06-15T05:00:21.452Z,66.71
2019-06-15T05:01:21.410Z,66.52
2019-06-15T05:02:21.378Z,67.19
2019-06-15T05:03:21.327Z,67.68
2019-06-15T05:04:21.275Z,66.42
2019-06-15T05:05:21.233Z,66.46
2019-06-15T05:06:21.226Z,66.84
2019-06-15T05:07:21.156Z,66.74
2019-06-15T05:08:21.137Z,66.94
2019-06-15T05:09:21.074Z,66.36
2019-06-15T05:10:21.062Z,66.46
2019-06-15T05:11:20.991Z,66.17
2019-06-15T05:12:20.951Z,66.07
2019-06-15T05:13:20.910Z,65.97
2019-06-15T05:14:20.868Z,66.36
2019-06-15T05:15:20.826Z,66.07
2019-06-15T05:16:20.817Z,66.07
2019-06-15T05:17:20.746Z,66.07
2019-06-15T05:18:20.707Z,66.17
2019-06-15T05:19:20.682Z,66.17
2019-06-15T05:20:20.628Z,65.97
2019-06-15T05:21:20.638Z,65.24
2019-06-15T05:22:20.546Z,65.11
2019-06-15T05:23:20.503Z,65.78
2019-06-15T05:24:20.467Z,65.97
2019-06-15T05:25:20.429Z,65.01
2019-06-15T05:26:20.387Z,65.33
2019-06-15T05:27:20.375Z,65.53
2019-06-15T05:28:20.307Z,65.43
2019-06-15T05:29:20.267Z,65.81
2019-06-15T05:30:20.222Z,65.14
2019-06-15T05:31:20.210Z,64.66
2019-06-15T05:32:20.166Z,65.05
2019-06-15T05:33:20.101Z,64.95
2019-06-15T05:34:20.064Z,64.28
2019-06-15T05:35:20.024Z,64.37
2019-06-15T05:36:20.016Z,65.24
2019-06-15T05:37:19.941Z,64.73
2019-06-15T05:38:19.910Z,65.30
2019-06-15T05:39:19.866Z,65.11
2019-06-15T05:40:19.825Z,65.88
2019-06-15T05:41:19.815Z,65.78
2019-06-15T05:42:19.753Z,66.07
2019-06-15T05:43:19.711Z,66.17
2019-06-15T05:44:19.664Z,66.07
2019-06-15T05:45:19.623Z,66.07
2019-06-15T05:46:19.585Z,66.46
2019-06-15T05:47:19.573Z,66.74
2019-06-15T05:48:19.505Z,66.74
2019-06-15T05:49:19.466Z,66.27
2019-06-15T05:50:19.429Z,66.27
2019-06-15T05:51:19.410Z,66.27
2019-06-15T05:52:19.345Z,66.74
2019-06-15T05:53:19.308Z,66.46
2019-06-15T05:54:19.261Z,66.17
2019-06-15T05:55:19.229Z,66.94
2019-06-15T05:56:19.210Z,66.55
2019-06-15T05:57:21.901Z,66.36
2019-06-15T05:58:19.099Z,66.84
2019-06-15T05:59:19.131Z,66.74
2019-06-15T06:00:19.019Z,65.97
2019-06-15T06:01:19.348Z,66.39
2019-06-15T06:02:21.032Z,66.20
2019-06-15T06:03:18.952Z,66.10
2019-06-15T06:04:18.958Z,65.53
2019-06-15T06:05:18.821Z,65.53
2019-06-15T06:06:18.972Z,65.43
2019-06-15T06:07:18.746Z,65.43
2019-06-15T06:08:18.789Z,66.20
2019-06-15T06:09:18.662Z,65.43
2019-06-15T06:10:18.794Z,64.95
2019-06-15T06:11:18.597Z,65.14
2019-06-15T06:12:19.660Z,65.63
2019-06-15T06:13:18.612Z,65.05
2019-06-15T06:14:18.464Z,64.76
2019-06-15T06:15:18.643Z,64.86
2019-06-15T06:16:18.382Z,65.17
2019-06-15T06:17:18.433Z,65.17
2019-06-15T06:18:18.306Z,64.21
2019-06-15T06:19:18.444Z,64.21
2019-06-15T06:20:18.229Z,64.59
2019-06-15T06:21:18.259Z,64.69
2019-06-15T06:22:18.291Z,64.50
2019-06-15T06:23:18.286Z,64.82
2019-06-15T06:24:18.077Z,63.82
2019-06-15T06:25:18.081Z,63.76
2019-06-15T06:26:17.996Z,63.76
2019-06-15T06:27:18.096Z,63.76
2019-06-15T06:28:17.911Z,64.15
2019-06-15T06:29:17.901Z,64.82
2019-06-15T06:30:17.846Z,64.05
2019-06-15T06:31:17.795Z,62.90
2019-06-15T06:32:17.757Z,62.51
2019-06-15T06:33:18.131Z,62.63
2019-06-15T06:34:17.687Z,62.83
2019-06-15T06:35:17.647Z,62.63
2019-06-15T06:36:17.601Z,62.41
2019-06-15T06:37:17.565Z,62.70
2019-06-15T06:38:17.523Z,62.51
2019-06-15T06:39:17.563Z,63.67
2019-06-15T06:40:17.447Z,64.05
2019-06-15T06:41:19.124Z,62.90
2019-06-15T06:42:17.413Z,63.57
2019-06-15T06:43:17.331Z,64.05
2019-06-15T06:44:17.407Z,64.92
2019-06-15T06:45:17.260Z,64.73
2019-06-15T06:46:17.403Z,63.95
2019-06-15T06:47:17.198Z,64.15
2019-06-15T06:48:17.213Z,64.05
2019-06-15T06:49:17.098Z,64.25
2019-06-15T06:50:17.224Z,64.92
2019-06-15T06:51:17.019Z,63.95
2019-06-15T06:52:17.235Z,64.28
2019-06-15T06:53:16.940Z,64.08
2019-06-15T06:54:17.048Z,63.50
2019-06-15T06:55:16.862Z,63.89
2019-06-15T06:56:16.855Z,62.93
2019-06-15T06:57:16.812Z,63.38
2019-06-15T06:58:16.870Z,63.98
2019-06-15T06:59:16.718Z,63.89
2019-06-15T07:00:16.881Z,63.79
2019-06-15T07:01:16.632Z,64.08
2019-06-15T07:02:16.899Z,63.70
2019-06-15T07:03:16.555Z,63.70
2019-06-15T07:04:16.615Z,63.50
2019-06-15T07:05:16.481Z,62.73
2019-06-15T07:06:16.437Z,61.61
2019-06-15T07:07:16.401Z,61.71
2019-06-15T07:08:16.397Z,61.61
2019-06-15T07:09:16.326Z,61.22
2019-06-15T07:10:16.288Z,61.22
2019-06-15T07:11:16.248Z,61.51
2019-06-15T07:12:16.210Z,60.77
2019-06-15T07:13:16.199Z,60.77
2019-06-15T07:14:16.264Z,60.00
2019-06-15T07:15:16.094Z,59.93
2019-06-15T07:16:16.077Z,59.06
2019-06-15T07:17:16.030Z,59.45
2019-06-15T07:18:16.087Z,59.35
2019-06-15T07:19:15.955Z,59.35
2019-06-15T07:20:16.097Z,58.58
2019-06-15T07:21:15.868Z,58.29
2019-06-15T07:22:15.906Z,58.10
2019-06-15T07:23:15.944Z,57.71
2019-06-15T07:24:15.921Z,58.19
2019-06-15T07:25:15.723Z,58.00
2019-06-15T07:26:15.727Z,58.42
2019-06-15T07:27:15.650Z,58.42
2019-06-15T07:28:15.640Z,57.16
2019-06-15T07:29:15.751Z,57.16
2019-06-15T07:30:15.536Z,57.35
2019-06-15T07:31:15.585Z,56.87
2019-06-15T07:32:17.643Z,57.84
2019-06-15T07:33:30.114Z,57.74
2019-06-15T07:34:15.389Z,57.93
2019-06-15T07:35:21.987Z,58.22
2019-06-15T07:36:15.312Z,58.12
2019-06-15T07:37:15.313Z,57.26
2019-06-15T07:38:15.239Z,57.26
2019-06-15T07:39:15.413Z,57.35
2019-06-15T07:40:15.163Z,56.87
2019-06-15T07:41:15.254Z,57.35
2019-06-15T07:42:15.142Z,57.84
2019-06-15T07:43:15.088Z,58.22
2019-06-15T07:44:16.053Z,58.42
2019-06-15T07:45:14.981Z,58.32
2019-06-15T07:46:15.049Z,58.42
2019-06-15T07:47:14.909Z,57.93
2019-06-15T07:48:14.888Z,58.61
2019-06-15T07:49:14.890Z,58.42
2019-06-15T07:50:14.863Z,58.51
2019-06-15T07:51:14.763Z,58.42
2019-06-15T07:52:14.886Z,57.74
2019-06-15T07:53:14.691Z,57.74
2019-06-15T07:54:14.693Z,56.96
2019-06-15T07:55:14.611Z,56.96
2019-06-15T07:56:14.908Z,58.12
2019-06-15T07:57:14.538Z,58.06
2019-06-15T07:58:24.239Z,57.29
2019-06-15T07:59:14.558Z,57.03
2019-06-15T08:00:14.487Z,55.96
2019-06-15T08:01:14.534Z,55.89
2019-06-15T08:02:14.409Z,54.73
2019-06-15T08:03:14.394Z,54.08
2019-06-15T08:04:14.326Z,53.99
2019-06-15T08:05:14.253Z,53.91
2019-06-15T08:06:14.238Z,52.85
2019-06-15T08:07:14.183Z,52.85
2019-06-15T08:08:14.151Z,52.95
2019-06-15T08:09:14.142Z,52.87
2019-06-15T08:10:14.077Z,51.72
2019-06-15T08:11:14.039Z,52.36
2019-06-15T08:12:14.193Z,52.56
2019-06-15T08:13:13.966Z,52.36
2019-06-15T08:14:36.179Z,52.85
2019-06-15T08:15:13.903Z,52.85
2019-06-15T08:16:14.857Z,52.95
2019-06-15T08:17:13.829Z,52.97
2019-06-15T08:18:21.490Z,52.20
2019-06-15T08:19:13.758Z,52.20
2019-06-15T08:20:13.750Z,51.62
2019-06-15T08:21:13.703Z,51.81
2019-06-15T08:22:15.657Z,51.06
2019-06-15T08:23:13.628Z,51.13
2019-06-15T08:24:20.499Z,51.13
2019-06-15T08:25:13.551Z,51.52
2019-06-15T08:26:18.050Z,51.52
2019-06-15T08:27:13.488Z,50.74
2019-06-15T08:28:13.456Z,51.40
2019-06-15T08:29:15.409Z,51.23
2019-06-15T08:30:13.382Z,51.42
2019-06-15T08:31:22.162Z,51.50
2019-06-15T08:32:13.405Z,52.46
2019-06-15T08:33:13.279Z,52.75
2019-06-15T08:34:13.267Z,52.66
2019-06-15T08:35:20.999Z,52.75
2019-06-15T08:36:13.176Z,52.73
2019-06-15T08:37:13.137Z,52.95
2019-06-15T08:38:13.129Z,53.04
2019-06-15T08:39:15.069Z,52.66
2019-06-15T08:40:13.050Z,52.75
2019-06-15T08:41:27.505Z,53.14
2019-06-15T08:42:12.967Z,53.33
2019-06-15T08:43:12.952Z,52.95
2019-06-15T08:44:12.891Z,51.86
2019-06-15T08:45:13.861Z,52.53
2019-06-15T08:46:12.826Z,53.02
2019-06-15T08:47:34.739Z,53.89
2019-06-15T08:48:16.067Z,52.82
2019-06-15T08:49:21.500Z,53.04
2019-06-15T08:50:12.683Z,53.04
2019-06-15T08:51:12.656Z,52.34
2019-06-15T08:52:12.615Z,51.40
2019-06-15T08:53:20.497Z,51.47
2019-06-15T08:54:12.552Z,51.08
2019-06-15T08:55:12.528Z,51.56
2019-06-15T08:56:12.471Z,52.05
2019-06-15T08:57:13.444Z,52.73
2019-06-15T08:58:23.030Z,52.82
2019-06-15T08:59:13.372Z,52.08
2019-06-15T09:00:12.331Z,51.40
2019-06-15T09:01:40.013Z,50.84
2019-06-15T09:02:12.267Z,51.52
2019-06-15T09:03:12.248Z,49.99
2019-06-15T09:04:19.015Z,49.05
2019-06-15T09:05:12.162Z,48.59
2019-06-15T09:06:13.121Z,48.61
2019-06-15T09:07:12.089Z,47.08
2019-06-15T09:08:16.128Z,45.65
2019-06-15T09:09:12.035Z,44.89
2019-06-15T09:10:12.992Z,44.33
2019-06-15T09:11:11.992Z,44.06
2019-06-15T09:12:13.919Z,43.48
2019-06-15T09:13:11.923Z,41.83
2019-06-15T09:14:49.500Z,42.80
2019-06-15T09:15:11.830Z,42.99
2019-06-15T09:16:11.798Z,41.94
2019-06-15T09:17:11.766Z,40.75
2019-06-15T09:18:11.737Z,42.11
2019-06-15T09:19:12.740Z,43.15
2019-06-15T09:20:11.676Z,44.12
2019-06-15T09:21:12.705Z,44.21
2019-06-15T09:22:11.608Z,43.46
2019-06-15T09:23:33.775Z,43.26
2019-06-15T09:24:11.543Z,42.97
2019-06-15T09:25:11.512Z,43.05
2019-06-15T09:33:23.805Z,41.75
2019-06-15T09:34:22.422Z,41.65
2019-06-15T09:35:22.391Z,41.48
2019-06-15T09:36:22.360Z,40.99
2019-06-15T09:37:22.330Z,40.52
2019-06-15T09:38:22.303Z,40.62
2019-06-15T09:39:31.820Z,40.35
2019-06-15T09:40:22.236Z,40.16
2019-06-15T09:41:22.233Z,38.98
2019-06-15T09:42:22.192Z,39.57
2019-06-15T09:43:22.144Z,39.67
2019-06-15T09:44:22.114Z,39.45
2019-06-15T09:45:22.109Z,39.45
2019-06-15T09:46:22.053Z,40.11
2019-06-15T09:47:22.027Z,40.62
2019-06-15T09:48:21.993Z,39.65
2019-06-15T09:49:21.964Z,40.13
2019-06-15T09:50:21.933Z,40.31
2019-06-15T09:51:21.934Z,40.60
2019-06-15T09:52:21.877Z,40.11
2019-06-15T09:53:21.842Z,40.31
2019-06-15T09:54:21.809Z,40.91
2019-06-15T09:55:21.779Z,40.91
2019-06-15T09:56:21.751Z,40.41
2019-06-15T09:57:21.751Z,40.48
2019-06-15T09:58:21.698Z,41.36
2019-06-15T09:59:25.980Z,40.95
2019-06-15T10:00:21.626Z,41.93
2019-06-15T10:01:21.599Z,42.00
2019-06-15T10:02:21.566Z,42.39
2019-06-15T10:03:21.610Z,42.50
2019-06-15T10:04:21.504Z,42.31
2019-06-15T10:05:21.471Z,41.80
2019-06-15T10:06:21.441Z,42.49
2019-06-15T10:07:21.411Z,42.68
2019-06-15T10:08:21.378Z,42.87
2019-06-15T10:09:21.378Z,42.78
2019-06-15T10:10:21.317Z,43.54
2019-06-15T10:11:21.283Z,43.24
2019-06-15T10:12:21.251Z,43.44
2019-06-15T10:13:21.221Z,43.24
2019-06-15T10:14:21.189Z,43.16
2019-06-15T10:15:21.180Z,42.90
2019-06-15T10:16:21.128Z,42.45
2019-06-15T10:17:21.092Z,41.42
2019-06-15T10:18:21.063Z,39.02
2019-06-15T10:19:21.032Z,37.67
2019-06-15T10:20:21.001Z,36.83
2019-06-15T10:21:20.997Z,35.69
2019-06-15T10:22:20.944Z,33.95
2019-06-15T10:23:20.928Z,33.50
2019-06-15T10:24:20.919Z,32.35
2019-06-15T10:25:20.860Z,30.99
2019-06-15T10:26:20.839Z,31.29
2019-06-15T10:27:20.836Z,30.12
2019-06-15T10:28:20.778Z,29.45
2019-06-15T10:29:20.770Z,29.64
2019-06-15T10:30:20.728Z,29.37
2019-06-15T10:31:20.702Z,28.59
2019-06-15T10:32:20.680Z,28.12
2019-06-15T10:33:20.690Z,28.03
2019-06-15T10:34:20.625Z,26.75
2019-06-15T10:35:20.602Z,28.14
2019-06-15T10:36:20.577Z,26.19
2019-06-15T10:37:20.554Z,25.51
2019-06-15T10:38:20.529Z,25.72
2019-06-15T10:39:20.530Z,24.84
2019-06-15T10:40:20.484Z,25.33
2019-06-15T10:41:20.458Z,25.01
2019-06-15T10:42:22.776Z,25.57
2019-06-15T10:43:20.411Z,26.54
2019-06-15T10:44:20.391Z,26.42
2019-06-15T10:45:20.401Z,28.16
2019-06-15T10:46:20.343Z,28.44
2019-06-15T10:47:20.317Z,28.92
2019-06-15T10:48:20.300Z,29.33
2019-06-15T10:49:20.265Z,28.75
2019-06-15T10:50:20.241Z,28.57
2019-06-15T10:51:20.243Z,28.39
2019-06-15T10:52:20.190Z,28.49
2019-06-15T10:53:20.165Z,27.71
2019-06-15T10:54:20.141Z,27.53
2019-06-15T10:55:20.116Z,26.17
2019-06-15T10:56:20.093Z,25.38
2019-06-15T10:57:20.099Z,25.57
2019-06-15T10:58:20.044Z,26.17
2019-06-15T10:59:20.020Z,26.07
2019-06-15T11:00:19.997Z,26.17
2019-06-15T11:01:19.976Z,25.66
2019-06-15T11:02:19.945Z,26.12
2019-06-15T11:03:19.945Z,27.59
2019-06-15T11:04:19.900Z,28.54
2019-06-15T11:05:19.895Z,28.92
2019-06-15T11:06:19.844Z,29.77
2019-06-15T11:07:19.824Z,31.00
2019-06-15T11:08:19.796Z,32.16
2019-06-15T11:09:19.766Z,32.26
2019-06-15T11:10:19.764Z,32.58
2019-06-15T11:11:21.647Z,32.32
2019-06-15T11:12:19.689Z,31.14
2019-06-15T11:13:19.707Z,29.70
2019-06-15T11:14:19.635Z,28.85
2019-06-15T11:15:19.633Z,28.57
2019-06-15T11:16:19.583Z,27.91
2019-06-15T11:17:19.557Z,27.22
2019-06-15T11:18:19.533Z,27.02
2019-06-15T11:19:19.527Z,26.45
2019-06-15T11:20:19.482Z,26.93
2019-06-15T11:21:19.464Z,26.24
2019-06-15T11:22:19.434Z,25.28
2019-06-15T11:23:19.411Z,25.49
2019-06-15T11:24:19.507Z,25.71
2019-06-15T11:25:19.363Z,25.14
2019-06-15T11:26:19.341Z,23.77
2019-06-15T11:27:19.316Z,22.89
2019-06-15T11:28:19.293Z,22.69
2019-06-15T11:29:19.271Z,23.37
2019-06-15T11:30:19.275Z,23.36
2019-06-15T11:31:19.226Z,24.02
2019-06-15T11:32:19.205Z,23.24
2019-06-15T11:33:19.178Z,23.91
2019-06-15T11:34:19.160Z,24.87
2019-06-15T11:35:19.139Z,25.16
2019-06-15T11:36:19.131Z,26.42
2019-06-15T11:37:19.082Z,26.40
2019-06-15T11:38:19.057Z,27.63
2019-06-15T11:39:19.031Z,28.79
2019-06-15T11:40:19.006Z,29.17
2019-06-15T11:41:18.981Z,29.25
2019-06-15T11:42:18.976Z,29.84
2019-06-15T11:43:18.926Z,30.41
2019-06-15T11:44:18.902Z,31.11
2019-06-15T11:45:18.878Z,31.14
2019-06-15T11:46:18.848Z,29.58
2019-06-15T11:47:18.823Z,29.30
2019-06-15T11:48:18.819Z,28.51
2019-06-15T11:49:18.770Z,28.53
2019-06-15T11:50:18.746Z,28.05
2019-06-15T11:51:18.717Z,27.97
2019-06-15T11:52:18.692Z,27.97
2019-06-15T11:53:18.672Z,26.98
2019-06-15T11:54:18.730Z,28.03
2019-06-15T11:55:20.076Z,27.44
2019-06-15T11:56:18.647Z,28.40
2019-06-15T11:57:18.563Z,28.79
2019-06-15T11:58:32.858Z,28.59
2019-06-15T11:59:18.517Z,29.17
2019-06-15T12:00:30.811Z,29.64
2019-06-15T12:01:19.041Z,30.22
2019-06-15T12:02:18.434Z,31.08
2019-06-15T12:03:18.402Z,31.38
2019-06-15T12:04:18.455Z,31.67
2019-06-15T12:05:18.358Z,31.49
2019-06-15T12:06:18.351Z,31.23
2019-06-15T12:07:18.338Z,30.25
2019-06-15T12:08:18.269Z,28.88
2019-06-15T12:09:18.241Z,29.74
2019-06-15T12:10:18.217Z,29.75
2019-06-15T12:11:18.185Z,29.55
2019-06-15T12:12:18.186Z,29.63
2019-06-15T12:13:18.130Z,29.73
2019-06-15T12:14:18.103Z,30.59
2019-06-15T12:15:18.084Z,31.39
2019-06-15T12:16:18.052Z,31.31
2019-06-15T12:17:18.020Z,30.13
2019-06-15T12:18:18.021Z,29.74
2019-06-15T12:19:17.962Z,29.45
2019-06-15T12:20:17.947Z,30.22
2019-06-15T12:21:17.906Z,30.22
2019-06-15T12:22:17.889Z,30.02
2019-06-15T12:23:17.855Z,31.13
2019-06-15T12:24:17.869Z,30.94
2019-06-15T12:25:17.800Z,29.00
2019-06-15T12:26:17.779Z,28.82
2019-06-15T12:27:17.767Z,28.54
2019-06-15T12:28:17.720Z,27.49
2019-06-15T12:29:17.697Z,26.34
2019-06-15T12:30:17.691Z,26.63
2019-06-15T12:31:17.638Z,25.37
2019-06-15T12:32:17.646Z,25.37
2019-06-15T12:33:17.594Z,24.88
2019-06-15T12:34:20.418Z,24.79
2019-06-15T12:35:17.547Z,24.30
2019-06-15T12:36:19.464Z,24.43
2019-06-15T12:37:17.495Z,22.97
2019-06-15T12:38:17.497Z,22.78
2019-06-15T12:39:17.458Z,21.90
2019-06-15T12:40:17.424Z,21.91
2019-06-15T12:41:17.401Z,21.42
2019-06-15T12:42:17.379Z,21.12
2019-06-15T12:43:17.360Z,20.92
2019-06-15T12:44:17.368Z,21.32
2019-06-15T12:45:17.308Z,21.11
2019-06-15T12:46:17.293Z,21.41
2019-06-15T12:47:17.262Z,21.42
2019-06-15T12:48:17.244Z,21.82
2019-06-15T12:49:17.220Z,21.03
2019-06-15T12:50:17.223Z,20.14
2019-06-15T12:51:17.176Z,19.84
2019-06-15T12:52:17.162Z,19.55
2019-06-15T12:53:17.167Z,19.85
2019-06-15T12:54:17.115Z,19.46
2019-06-15T12:55:17.097Z,20.33
2019-06-15T12:56:17.072Z,20.91
2019-06-15T12:57:17.050Z,21.10
2019-06-15T12:58:17.051Z,21.59
2019-06-15T12:59:17.000Z,21.41
2019-06-15T13:00:16.994Z,21.51